sensor_id;sensor_type;location;lat;lon;timestamp;P1;durP1;ratioP1;P2;durP2;ratioP2
28353;SDS011;15603;50.878;8.036;2022-07-22T00:01:13;7.97;;;6.03;;
28353;SDS011;15603;50.878;8.036;2022-07-22T00:03:40;13.55;;;6.30;;
28353;SDS011;15603;50.878;8.036;2022-07-22T00:06:07;7.90;;;5.50;;
28353;SDS011;15603;50.878;8.036;2022-07-22T00:08:34;7.68;;;5.35;;
28353;SDS011;15603;50.878;8.036;2022-07-22T00:11:01;11.45;;;5.57;;
28353;SDS011;15603;50.878;8.036;2022-07-22T00:13:29;7.40;;;5.38;;
28353;SDS011;15603;50.878;8.036;2022-07-22T00:15:56;9.60;;;6.47;;
28353;SDS011;15603;50.878;8.036;2022-07-22T00:18:23;9.45;;;5.97;;
28353;SDS011;15603;50.878;8.036;2022-07-22T00:20:51;9.15;;;6.05;;
28353;SDS011;15603;50.878;8.036;2022-07-22T00:23:18;7.70;;;6.25;;
28353;SDS011;15603;50.878;8.036;2022-07-22T00:25:45;8.95;;;6.85;;
28353;SDS011;15603;50.878;8.036;2022-07-22T00:28:12;8.75;;;6.20;;
28353;SDS011;15603;50.878;8.036;2022-07-22T00:30:39;9.75;;;6.63;;
28353;SDS011;15603;50.878;8.036;2022-07-22T00:33:06;10.00;;;6.78;;
28353;SDS011;15603;50.878;8.036;2022-07-22T00:35:33;8.45;;;6.05;;
28353;SDS011;15603;50.878;8.036;2022-07-22T00:38:08;7.80;;;5.85;;
28353;SDS011;15603;50.878;8.036;2022-07-22T00:40:36;7.85;;;6.22;;
28353;SDS011;15603;50.878;8.036;2022-07-22T00:43:03;7.93;;;6.32;;
28353;SDS011;15603;50.878;8.036;2022-07-22T00:45:30;8.40;;;5.47;;
28353;SDS011;15603;50.878;8.036;2022-07-22T00:47:59;9.38;;;5.38;;
28353;SDS011;15603;50.878;8.036;2022-07-22T00:50:26;8.07;;;5.50;;
28353;SDS011;15603;50.878;8.036;2022-07-22T00:52:53;6.05;;;4.97;;
28353;SDS011;15603;50.878;8.036;2022-07-22T00:55:21;9.77;;;5.70;;
28353;SDS011;15603;50.878;8.036;2022-07-22T00:57:48;9.02;;;5.15;;
28353;SDS011;15603;50.878;8.036;2022-07-22T01:00:16;6.57;;;5.20;;
28353;SDS011;15603;50.878;8.036;2022-07-22T01:02:46;7.90;;;5.43;;
28353;SDS011;15603;50.878;8.036;2022-07-22T01:05:14;5.95;;;4.95;;
28353;SDS011;15603;50.878;8.036;2022-07-22T01:07:41;6.85;;;5.07;;
28353;SDS011;15603;50.878;8.036;2022-07-22T01:10:08;11.65;;;5.38;;
28353;SDS011;15603;50.878;8.036;2022-07-22T01:12:35;8.85;;;6.00;;
28353;SDS011;15603;50.878;8.036;2022-07-22T01:15:03;8.98;;;5.38;;
28353;SDS011;15603;50.878;8.036;2022-07-22T01:17:30;10.40;;;6.15;;
28353;SDS011;15603;50.878;8.036;2022-07-22T01:20:02;10.05;;;6.57;;
28353;SDS011;15603;50.878;8.036;2022-07-22T01:22:33;6.95;;;5.20;;
28353;SDS011;15603;50.878;8.036;2022-07-22T01:25:00;13.25;;;6.50;;
28353;SDS011;15603;50.878;8.036;2022-07-22T01:27:28;8.77;;;5.30;;
28353;SDS011;15603;50.878;8.036;2022-07-22T01:29:56;8.25;;;5.20;;
28353;SDS011;15603;50.878;8.036;2022-07-22T01:32:24;6.75;;;5.60;;
28353;SDS011;15603;50.878;8.036;2022-07-22T01:34:51;10.85;;;5.40;;
28353;SDS011;15603;50.878;8.036;2022-07-22T01:37:18;16.60;;;5.63;;
28353;SDS011;15603;50.878;8.036;2022-07-22T01:39:45;8.98;;;5.75;;
28353;SDS011;15603;50.878;8.036;2022-07-22T01:42:13;8.38;;;6.05;;
28353;SDS011;15603;50.878;8.036;2022-07-22T01:44:41;8.63;;;6.03;;
28353;SDS011;15603;50.878;8.036;2022-07-22T01:47:08;9.20;;;5.85;;
28353;SDS011;15603;50.878;8.036;2022-07-22T01:49:35;11.73;;;6.57;;
28353;SDS011;15603;50.878;8.036;2022-07-22T01:52:03;7.57;;;5.57;;
28353;SDS011;15603;50.878;8.036;2022-07-22T01:54:33;11.20;;;6.82;;
28353;SDS011;15603;50.878;8.036;2022-07-22T01:57:00;8.32;;;6.35;;
28353;SDS011;15603;50.878;8.036;2022-07-22T01:59:28;11.38;;;6.60;;
28353;SDS011;15603;50.878;8.036;2022-07-22T02:01:56;10.45;;;6.82;;
28353;SDS011;15603;50.878;8.036;2022-07-22T02:04:24;10.88;;;7.25;;
28353;SDS011;15603;50.878;8.036;2022-07-22T02:06:53;9.55;;;6.50;;
28353;SDS011;15603;50.878;8.036;2022-07-22T02:09:20;10.00;;;5.95;;
28353;SDS011;15603;50.878;8.036;2022-07-22T02:11:51;11.27;;;7.05;;
28353;SDS011;15603;50.878;8.036;2022-07-22T02:14:19;12.70;;;6.53;;
28353;SDS011;15603;50.878;8.036;2022-07-22T02:16:48;9.13;;;5.95;;
28353;SDS011;15603;50.878;8.036;2022-07-22T02:19:16;12.40;;;6.68;;
28353;SDS011;15603;50.878;8.036;2022-07-22T02:21:44;10.85;;;7.00;;
28353;SDS011;15603;50.878;8.036;2022-07-22T02:24:12;9.10;;;6.72;;
28353;SDS011;15603;50.878;8.036;2022-07-22T02:26:39;13.07;;;5.97;;
28353;SDS011;15603;50.878;8.036;2022-07-22T02:29:06;12.43;;;6.82;;
28353;SDS011;15603;50.878;8.036;2022-07-22T02:31:35;9.75;;;6.65;;
28353;SDS011;15603;50.878;8.036;2022-07-22T02:34:06;12.65;;;7.45;;
28353;SDS011;15603;50.878;8.036;2022-07-22T02:36:33;10.90;;;6.75;;
28353;SDS011;15603;50.878;8.036;2022-07-22T02:39:02;9.20;;;6.43;;
28353;SDS011;15603;50.878;8.036;2022-07-22T02:41:30;12.52;;;8.05;;
28353;SDS011;15603;50.878;8.036;2022-07-22T02:43:57;12.65;;;7.28;;
28353;SDS011;15603;50.878;8.036;2022-07-22T02:46:25;11.32;;;7.47;;
28353;SDS011;15603;50.878;8.036;2022-07-22T02:48:57;14.90;;;7.15;;
28353;SDS011;15603;50.878;8.036;2022-07-22T02:51:25;10.82;;;8.02;;
28353;SDS011;15603;50.878;8.036;2022-07-22T02:53:52;12.65;;;8.77;;
28353;SDS011;15603;50.878;8.036;2022-07-22T02:56:20;13.68;;;9.45;;
28353;SDS011;15603;50.878;8.036;2022-07-22T02:58:47;13.60;;;8.95;;
28353;SDS011;15603;50.878;8.036;2022-07-22T03:01:19;14.05;;;9.32;;
28353;SDS011;15603;50.878;8.036;2022-07-22T03:04:04;17.35;;;9.75;;
28353;SDS011;15603;50.878;8.036;2022-07-22T03:06:34;17.17;;;10.15;;
28353;SDS011;15603;50.878;8.036;2022-07-22T03:09:09;15.90;;;10.20;;
28353;SDS011;15603;50.878;8.036;2022-07-22T03:11:40;19.75;;;10.00;;
28353;SDS011;15603;50.878;8.036;2022-07-22T03:14:08;18.98;;;10.32;;
28353;SDS011;15603;50.878;8.036;2022-07-22T03:16:37;20.48;;;9.82;;
28353;SDS011;15603;50.878;8.036;2022-07-22T03:19:05;13.57;;;9.57;;
28353;SDS011;15603;50.878;8.036;2022-07-22T03:21:33;16.23;;;9.48;;
28353;SDS011;15603;50.878;8.036;2022-07-22T03:24:00;16.65;;;10.00;;
28353;SDS011;15603;50.878;8.036;2022-07-22T03:26:27;16.15;;;9.30;;
28353;SDS011;15603;50.878;8.036;2022-07-22T03:28:54;18.17;;;11.30;;
28353;SDS011;15603;50.878;8.036;2022-07-22T03:31:23;14.02;;;9.07;;
28353;SDS011;15603;50.878;8.036;2022-07-22T03:33:51;16.00;;;10.10;;
28353;SDS011;15603;50.878;8.036;2022-07-22T03:36:19;17.25;;;10.00;;
28353;SDS011;15603;50.878;8.036;2022-07-22T03:38:50;14.73;;;9.55;;
28353;SDS011;15603;50.878;8.036;2022-07-22T03:41:17;16.98;;;10.05;;
28353;SDS011;15603;50.878;8.036;2022-07-22T03:43:44;23.83;;;14.60;;
28353;SDS011;15603;50.878;8.036;2022-07-22T03:46:11;14.07;;;9.40;;
28353;SDS011;15603;50.878;8.036;2022-07-22T03:48:39;21.13;;;9.75;;
28353;SDS011;15603;50.878;8.036;2022-07-22T03:51:06;16.75;;;9.75;;
28353;SDS011;15603;50.878;8.036;2022-07-22T03:53:34;14.90;;;9.32;;
28353;SDS011;15603;50.878;8.036;2022-07-22T03:56:02;18.08;;;9.25;;
28353;SDS011;15603;50.878;8.036;2022-07-22T03:58:30;13.18;;;8.82;;
28353;SDS011;15603;50.878;8.036;2022-07-22T04:00:59;13.25;;;9.43;;
28353;SDS011;15603;50.878;8.036;2022-07-22T04:03:26;15.98;;;9.55;;
28353;SDS011;15603;50.878;8.036;2022-07-22T04:06:04;25.83;;;10.30;;
28353;SDS011;15603;50.878;8.036;2022-07-22T04:08:47;15.38;;;9.73;;
28353;SDS011;15603;50.878;8.036;2022-07-22T04:11:16;13.65;;;9.25;;
28353;SDS011;15603;50.878;8.036;2022-07-22T04:13:43;22.70;;;9.73;;
28353;SDS011;15603;50.878;8.036;2022-07-22T04:16:10;13.57;;;8.20;;
28353;SDS011;15603;50.878;8.036;2022-07-22T04:18:46;13.88;;;7.60;;
28353;SDS011;15603;50.878;8.036;2022-07-22T04:21:13;11.95;;;7.70;;
28353;SDS011;15603;50.878;8.036;2022-07-22T04:23:53;13.63;;;8.10;;
28353;SDS011;15603;50.878;8.036;2022-07-22T04:26:28;13.45;;;7.80;;
28353;SDS011;15603;50.878;8.036;2022-07-22T04:28:56;9.80;;;6.70;;
28353;SDS011;15603;50.878;8.036;2022-07-22T04:31:24;10.90;;;7.13;;
28353;SDS011;15603;50.878;8.036;2022-07-22T04:33:58;15.00;;;7.70;;
28353;SDS011;15603;50.878;8.036;2022-07-22T04:36:26;11.27;;;7.20;;
28353;SDS011;15603;50.878;8.036;2022-07-22T04:38:53;9.88;;;6.80;;
28353;SDS011;15603;50.878;8.036;2022-07-22T04:41:21;14.20;;;7.43;;
28353;SDS011;15603;50.878;8.036;2022-07-22T04:43:49;13.73;;;7.70;;
28353;SDS011;15603;50.878;8.036;2022-07-22T04:46:20;11.02;;;7.78;;
28353;SDS011;15603;50.878;8.036;2022-07-22T04:48:47;10.38;;;6.90;;
28353;SDS011;15603;50.878;8.036;2022-07-22T04:51:15;11.25;;;7.68;;
28353;SDS011;15603;50.878;8.036;2022-07-22T04:53:45;16.60;;;9.30;;
28353;SDS011;15603;50.878;8.036;2022-07-22T04:56:19;10.32;;;7.35;;
28353;SDS011;15603;50.878;8.036;2022-07-22T04:58:46;9.32;;;6.90;;
28353;SDS011;15603;50.878;8.036;2022-07-22T05:01:13;10.75;;;7.90;;
28353;SDS011;15603;50.878;8.036;2022-07-22T05:03:43;11.40;;;7.55;;
28353;SDS011;15603;50.878;8.036;2022-07-22T05:06:11;10.60;;;7.30;;
28353;SDS011;15603;50.878;8.036;2022-07-22T05:08:42;12.98;;;7.97;;
28353;SDS011;15603;50.878;8.036;2022-07-22T05:11:09;12.13;;;8.07;;
28353;SDS011;15603;50.878;8.036;2022-07-22T05:13:36;11.82;;;7.93;;
28353;SDS011;15603;50.878;8.036;2022-07-22T05:16:03;11.88;;;7.53;;
28353;SDS011;15603;50.878;8.036;2022-07-22T05:18:33;14.45;;;8.43;;
28353;SDS011;15603;50.878;8.036;2022-07-22T05:21:02;11.38;;;7.68;;
28353;SDS011;15603;50.878;8.036;2022-07-22T05:23:29;12.52;;;7.43;;
28353;SDS011;15603;50.878;8.036;2022-07-22T05:25:57;11.45;;;7.63;;
28353;SDS011;15603;50.878;8.036;2022-07-22T05:28:24;12.68;;;7.40;;
28353;SDS011;15603;50.878;8.036;2022-07-22T05:30:52;12.80;;;7.57;;
28353;SDS011;15603;50.878;8.036;2022-07-22T05:33:20;9.93;;;6.90;;
28353;SDS011;15603;50.878;8.036;2022-07-22T05:35:56;12.05;;;6.70;;
28353;SDS011;15603;50.878;8.036;2022-07-22T05:38:31;11.77;;;7.20;;
28353;SDS011;15603;50.878;8.036;2022-07-22T05:40:59;10.07;;;6.93;;
28353;SDS011;15603;50.878;8.036;2022-07-22T05:43:27;10.48;;;6.80;;
28353;SDS011;15603;50.878;8.036;2022-07-22T05:45:54;10.98;;;6.13;;
28353;SDS011;15603;50.878;8.036;2022-07-22T05:48:22;11.35;;;6.80;;
28353;SDS011;15603;50.878;8.036;2022-07-22T05:50:49;11.48;;;7.05;;
28353;SDS011;15603;50.878;8.036;2022-07-22T05:53:16;23.75;;;7.65;;
28353;SDS011;15603;50.878;8.036;2022-07-22T05:55:43;14.73;;;7.47;;
28353;SDS011;15603;50.878;8.036;2022-07-22T05:58:10;16.85;;;6.60;;
28353;SDS011;15603;50.878;8.036;2022-07-22T06:00:37;12.00;;;6.53;;
28353;SDS011;15603;50.878;8.036;2022-07-22T06:03:06;13.02;;;6.78;;
28353;SDS011;15603;50.878;8.036;2022-07-22T06:05:33;11.05;;;5.75;;
28353;SDS011;15603;50.878;8.036;2022-07-22T06:08:07;7.30;;;5.40;;
28353;SDS011;15603;50.878;8.036;2022-07-22T06:10:41;10.18;;;5.95;;
28353;SDS011;15603;50.878;8.036;2022-07-22T06:13:08;8.10;;;5.35;;
28353;SDS011;15603;50.878;8.036;2022-07-22T06:15:38;9.40;;;4.50;;
28353;SDS011;15603;50.878;8.036;2022-07-22T06:18:05;7.57;;;3.67;;
28353;SDS011;15603;50.878;8.036;2022-07-22T06:20:32;5.60;;;3.78;;
28353;SDS011;15603;50.878;8.036;2022-07-22T06:23:00;14.60;;;4.43;;
28353;SDS011;15603;50.878;8.036;2022-07-22T06:25:28;6.97;;;4.07;;
28353;SDS011;15603;50.878;8.036;2022-07-22T06:28:11;3.75;;;2.95;;
28353;SDS011;15603;50.878;8.036;2022-07-22T06:30:38;7.65;;;3.60;;
28353;SDS011;15603;50.878;8.036;2022-07-22T06:33:06;5.57;;;3.33;;
28353;SDS011;15603;50.878;8.036;2022-07-22T06:35:33;6.80;;;3.65;;
28353;SDS011;15603;50.878;8.036;2022-07-22T06:38:01;3.83;;;2.40;;
28353;SDS011;15603;50.878;8.036;2022-07-22T06:40:43;3.70;;;2.43;;
28353;SDS011;15603;50.878;8.036;2022-07-22T06:43:30;5.55;;;2.28;;
28353;SDS011;15603;50.878;8.036;2022-07-22T06:46:24;2.75;;;2.20;;
28353;SDS011;15603;50.878;8.036;2022-07-22T06:48:52;4.88;;;2.63;;
28353;SDS011;15603;50.878;8.036;2022-07-22T06:51:20;3.30;;;2.45;;
28353;SDS011;15603;50.878;8.036;2022-07-22T06:53:53;2.92;;;2.30;;
28353;SDS011;15603;50.878;8.036;2022-07-22T06:56:20;1.92;;;1.30;;
28353;SDS011;15603;50.878;8.036;2022-07-22T06:58:48;6.80;;;1.80;;
28353;SDS011;15603;50.878;8.036;2022-07-22T07:01:15;2.03;;;1.75;;
28353;SDS011;15603;50.878;8.036;2022-07-22T07:03:51;3.78;;;2.13;;
28353;SDS011;15603;50.878;8.036;2022-07-22T07:06:19;2.67;;;2.17;;
28353;SDS011;15603;50.878;8.036;2022-07-22T07:09:04;3.85;;;2.25;;
28353;SDS011;15603;50.878;8.036;2022-07-22T07:11:32;3.63;;;2.38;;
28353;SDS011;15603;50.878;8.036;2022-07-22T07:14:00;4.45;;;2.70;;
28353;SDS011;15603;50.878;8.036;2022-07-22T07:16:28;3.53;;;2.38;;
28353;SDS011;15603;50.878;8.036;2022-07-22T07:18:56;3.15;;;2.50;;
28353;SDS011;15603;50.878;8.036;2022-07-22T07:21:23;6.18;;;2.70;;
28353;SDS011;15603;50.878;8.036;2022-07-22T07:23:51;4.65;;;1.77;;
28353;SDS011;15603;50.878;8.036;2022-07-22T07:26:19;4.05;;;1.95;;
28353;SDS011;15603;50.878;8.036;2022-07-22T07:28:46;2.53;;;1.80;;
28353;SDS011;15603;50.878;8.036;2022-07-22T07:31:33;2.58;;;1.70;;
28353;SDS011;15603;50.878;8.036;2022-07-22T07:34:04;2.20;;;1.70;;
28353;SDS011;15603;50.878;8.036;2022-07-22T07:36:31;3.45;;;1.90;;
28353;SDS011;15603;50.878;8.036;2022-07-22T07:38:58;2.25;;;1.83;;
28353;SDS011;15603;50.878;8.036;2022-07-22T07:41:26;3.05;;;1.90;;
28353;SDS011;15603;50.878;8.036;2022-07-22T07:43:54;2.53;;;1.65;;
28353;SDS011;15603;50.878;8.036;2022-07-22T07:46:22;6.60;;;2.20;;
28353;SDS011;15603;50.878;8.036;2022-07-22T07:48:50;3.67;;;2.28;;
28353;SDS011;15603;50.878;8.036;2022-07-22T07:51:17;2.47;;;1.95;;
28353;SDS011;15603;50.878;8.036;2022-07-22T07:53:45;6.40;;;2.70;;
28353;SDS011;15603;50.878;8.036;2022-07-22T07:56:13;2.42;;;1.83;;
28353;SDS011;15603;50.878;8.036;2022-07-22T07:58:40;5.75;;;2.90;;
28353;SDS011;15603;50.878;8.036;2022-07-22T08:01:27;4.38;;;2.35;;
28353;SDS011;15603;50.878;8.036;2022-07-22T08:04:14;2.78;;;1.83;;
28353;SDS011;15603;50.878;8.036;2022-07-22T08:07:01;3.40;;;2.67;;
28353;SDS011;15603;50.878;8.036;2022-07-22T08:09:29;3.22;;;2.58;;
28353;SDS011;15603;50.878;8.036;2022-07-22T08:11:57;7.32;;;2.67;;
28353;SDS011;15603;50.878;8.036;2022-07-22T08:14:39;4.75;;;2.72;;
28353;SDS011;15603;50.878;8.036;2022-07-22T08:17:25;3.95;;;2.83;;
28353;SDS011;15603;50.878;8.036;2022-07-22T08:19:52;3.55;;;2.33;;
28353;SDS011;15603;50.878;8.036;2022-07-22T08:22:20;5.15;;;2.90;;
28353;SDS011;15603;50.878;8.036;2022-07-22T08:24:48;5.82;;;2.85;;
28353;SDS011;15603;50.878;8.036;2022-07-22T08:27:17;3.08;;;2.50;;
28353;SDS011;15603;50.878;8.036;2022-07-22T08:29:44;4.15;;;2.42;;
28353;SDS011;15603;50.878;8.036;2022-07-22T08:32:11;4.18;;;2.75;;
28353;SDS011;15603;50.878;8.036;2022-07-22T08:34:40;6.13;;;2.88;;
28353;SDS011;15603;50.878;8.036;2022-07-22T08:37:07;3.97;;;2.67;;
28353;SDS011;15603;50.878;8.036;2022-07-22T08:39:34;3.67;;;2.22;;
28353;SDS011;15603;50.878;8.036;2022-07-22T08:42:02;3.05;;;2.22;;
28353;SDS011;15603;50.878;8.036;2022-07-22T08:44:31;4.90;;;2.85;;
28353;SDS011;15603;50.878;8.036;2022-07-22T08:47:00;4.35;;;2.33;;
28353;SDS011;15603;50.878;8.036;2022-07-22T08:50:06;5.57;;;2.92;;
28353;SDS011;15603;50.878;8.036;2022-07-22T08:52:43;4.35;;;3.08;;
28353;SDS011;15603;50.878;8.036;2022-07-22T08:55:10;3.70;;;2.88;;
28353;SDS011;15603;50.878;8.036;2022-07-22T08:57:37;3.30;;;2.53;;
28353;SDS011;15603;50.878;8.036;2022-07-22T09:00:09;4.35;;;2.67;;
28353;SDS011;15603;50.878;8.036;2022-07-22T09:02:39;4.38;;;2.80;;
28353;SDS011;15603;50.878;8.036;2022-07-22T09:05:10;4.47;;;3.15;;
28353;SDS011;15603;50.878;8.036;2022-07-22T09:08:02;3.70;;;2.88;;
28353;SDS011;15603;50.878;8.036;2022-07-22T09:10:51;4.28;;;2.58;;
28353;SDS011;15603;50.878;8.036;2022-07-22T09:13:38;5.25;;;2.90;;
28353;SDS011;15603;50.878;8.036;2022-07-22T09:19:18;4.63;;;3.20;;
28353;SDS011;15603;50.878;8.036;2022-07-22T09:22:41;3.70;;;2.85;;
28353;SDS011;15603;50.878;8.036;2022-07-22T09:25:29;5.97;;;2.92;;
28353;SDS011;15603;50.878;8.036;2022-07-22T09:28:20;7.00;;;3.08;;
28353;SDS011;15603;50.878;8.036;2022-07-22T09:31:23;6.70;;;3.05;;
28353;SDS011;15603;50.878;8.036;2022-07-22T09:34:02;3.22;;;2.70;;
28353;SDS011;15603;50.878;8.036;2022-07-22T09:36:30;3.80;;;2.65;;
28353;SDS011;15603;50.878;8.036;2022-07-22T09:38:58;3.10;;;2.80;;
28353;SDS011;15603;50.878;8.036;2022-07-22T09:41:26;5.07;;;3.78;;
28353;SDS011;15603;50.878;8.036;2022-07-22T09:43:54;5.15;;;3.25;;
28353;SDS011;15603;50.878;8.036;2022-07-22T09:46:37;5.13;;;3.80;;
28353;SDS011;15603;50.878;8.036;2022-07-22T09:49:34;5.43;;;3.60;;
28353;SDS011;15603;50.878;8.036;2022-07-22T09:52:28;4.82;;;3.30;;
28353;SDS011;15603;50.878;8.036;2022-07-22T09:55:06;4.07;;;2.95;;
28353;SDS011;15603;50.878;8.036;2022-07-22T09:57:36;5.38;;;3.63;;
28353;SDS011;15603;50.878;8.036;2022-07-22T10:00:04;4.95;;;3.13;;
28353;SDS011;15603;50.878;8.036;2022-07-22T10:05:22;5.75;;;4.03;;
28353;SDS011;15603;50.878;8.036;2022-07-22T10:07:55;6.05;;;4.10;;
28353;SDS011;15603;50.878;8.036;2022-07-22T10:10:26;5.45;;;2.90;;
28353;SDS011;15603;50.878;8.036;2022-07-22T10:12:55;6.00;;;3.65;;
28353;SDS011;15603;50.878;8.036;2022-07-22T10:15:24;4.28;;;3.13;;
28353;SDS011;15603;50.878;8.036;2022-07-22T10:18:02;19.40;;;11.77;;
28353;SDS011;15603;50.878;8.036;2022-07-22T10:20:35;4.43;;;3.00;;
28353;SDS011;15603;50.878;8.036;2022-07-22T10:23:04;8.15;;;3.65;;
28353;SDS011;15603;50.878;8.036;2022-07-22T10:25:53;23.50;;;5.70;;
28353;SDS011;15603;50.878;8.036;2022-07-22T10:28:26;10.27;;;3.40;;
28353;SDS011;15603;50.878;8.036;2022-07-22T10:33:51;6.60;;;3.00;;
28353;SDS011;15603;50.878;8.036;2022-07-22T10:36:30;11.82;;;3.45;;
28353;SDS011;15603;50.878;8.036;2022-07-22T10:39:04;5.80;;;3.50;;
28353;SDS011;15603;50.878;8.036;2022-07-22T10:41:42;4.55;;;3.53;;
28353;SDS011;15603;50.878;8.036;2022-07-22T10:48:10;7.85;;;3.80;;
28353;SDS011;15603;50.878;8.036;2022-07-22T10:53:03;5.28;;;3.17;;
28353;SDS011;15603;50.878;8.036;2022-07-22T10:55:35;5.57;;;3.42;;
28353;SDS011;15603;50.878;8.036;2022-07-22T11:00:59;5.95;;;3.13;;
28353;SDS011;15603;50.878;8.036;2022-07-22T11:03:32;7.93;;;3.58;;
28353;SDS011;15603;50.878;8.036;2022-07-22T11:08:40;5.55;;;3.40;;
28353;SDS011;15603;50.878;8.036;2022-07-22T11:11:07;7.65;;;3.28;;
28353;SDS011;15603;50.878;8.036;2022-07-22T11:13:36;4.28;;;3.20;;
28353;SDS011;15603;50.878;8.036;2022-07-22T11:16:15;3.95;;;2.88;;
28353;SDS011;15603;50.878;8.036;2022-07-22T11:18:58;4.55;;;2.88;;
28353;SDS011;15603;50.878;8.036;2022-07-22T11:21:28;4.22;;;3.30;;
28353;SDS011;15603;50.878;8.036;2022-07-22T11:23:59;5.75;;;3.22;;
28353;SDS011;15603;50.878;8.036;2022-07-22T11:26:34;4.83;;;2.90;;
28353;SDS011;15603;50.878;8.036;2022-07-22T11:29:08;4.32;;;2.63;;
28353;SDS011;15603;50.878;8.036;2022-07-22T11:31:37;3.95;;;3.25;;
28353;SDS011;15603;50.878;8.036;2022-07-22T11:34:05;7.53;;;3.70;;
28353;SDS011;15603;50.878;8.036;2022-07-22T11:36:38;5.43;;;3.92;;
28353;SDS011;15603;50.878;8.036;2022-07-22T11:39:07;7.45;;;3.75;;
28353;SDS011;15603;50.878;8.036;2022-07-22T11:41:36;6.00;;;3.70;;
28353;SDS011;15603;50.878;8.036;2022-07-22T11:44:03;7.93;;;3.67;;
28353;SDS011;15603;50.878;8.036;2022-07-22T11:46:38;5.47;;;3.60;;
28353;SDS011;15603;50.878;8.036;2022-07-22T11:49:07;5.38;;;3.75;;
28353;SDS011;15603;50.878;8.036;2022-07-22T11:51:37;6.90;;;3.53;;
28353;SDS011;15603;50.878;8.036;2022-07-22T11:54:04;6.18;;;3.58;;
28353;SDS011;15603;50.878;8.036;2022-07-22T11:56:33;5.85;;;3.22;;
28353;SDS011;15603;50.878;8.036;2022-07-22T11:59:01;4.65;;;3.85;;
28353;SDS011;15603;50.878;8.036;2022-07-22T12:01:32;6.20;;;4.18;;
28353;SDS011;15603;50.878;8.036;2022-07-22T12:04:05;6.93;;;4.70;;
28353;SDS011;15603;50.878;8.036;2022-07-22T12:06:42;7.28;;;3.85;;
28353;SDS011;15603;50.878;8.036;2022-07-22T12:09:11;8.35;;;3.45;;
28353;SDS011;15603;50.878;8.036;2022-07-22T12:11:39;8.32;;;3.53;;
28353;SDS011;15603;50.878;8.036;2022-07-22T12:14:13;8.32;;;3.95;;
28353;SDS011;15603;50.878;8.036;2022-07-22T12:19:33;8.93;;;4.10;;
28353;SDS011;15603;50.878;8.036;2022-07-22T12:22:03;7.65;;;4.28;;
28353;SDS011;15603;50.878;8.036;2022-07-22T12:24:37;5.88;;;3.83;;
28353;SDS011;15603;50.878;8.036;2022-07-22T12:27:06;8.52;;;3.88;;
28353;SDS011;15603;50.878;8.036;2022-07-22T12:32:03;7.78;;;3.70;;
28353;SDS011;15603;50.878;8.036;2022-07-22T12:34:39;6.13;;;3.60;;
28353;SDS011;15603;50.878;8.036;2022-07-22T12:39:39;8.10;;;4.07;;
28353;SDS011;15603;50.878;8.036;2022-07-22T12:42:15;4.72;;;3.65;;
28353;SDS011;15603;50.878;8.036;2022-07-22T12:44:50;7.90;;;3.50;;
28353;SDS011;15603;50.878;8.036;2022-07-22T12:52:57;5.63;;;3.13;;
28353;SDS011;15603;50.878;8.036;2022-07-22T12:55:46;4.97;;;3.13;;
28353;SDS011;15603;50.878;8.036;2022-07-22T12:58:26;6.85;;;3.80;;
28353;SDS011;15603;50.878;8.036;2022-07-22T13:00:59;12.23;;;4.07;;
28353;SDS011;15603;50.878;8.036;2022-07-22T13:03:27;3.45;;;2.63;;
28353;SDS011;15603;50.878;8.036;2022-07-22T13:05:58;5.78;;;3.05;;
28353;SDS011;15603;50.878;8.036;2022-07-22T13:08:27;5.78;;;2.85;;
28353;SDS011;15603;50.878;8.036;2022-07-22T13:11:11;6.38;;;3.63;;
28353;SDS011;15603;50.878;8.036;2022-07-22T13:13:39;7.72;;;2.90;;
28353;SDS011;15603;50.878;8.036;2022-07-22T13:16:09;7.03;;;3.63;;
28353;SDS011;15603;50.878;8.036;2022-07-22T13:18:36;4.22;;;2.83;;
28353;SDS011;15603;50.878;8.036;2022-07-22T13:21:06;5.22;;;2.80;;
28353;SDS011;15603;50.878;8.036;2022-07-22T13:23:33;8.75;;;3.13;;
28353;SDS011;15603;50.878;8.036;2022-07-22T13:26:00;4.35;;;2.78;;
28353;SDS011;15603;50.878;8.036;2022-07-22T13:28:27;5.38;;;2.90;;
28353;SDS011;15603;50.878;8.036;2022-07-22T13:30:54;7.03;;;2.90;;
28353;SDS011;15603;50.878;8.036;2022-07-22T13:33:22;7.45;;;3.38;;
28353;SDS011;15603;50.878;8.036;2022-07-22T13:35:49;5.13;;;3.22;;
28353;SDS011;15603;50.878;8.036;2022-07-22T13:38:17;4.32;;;2.60;;
28353;SDS011;15603;50.878;8.036;2022-07-22T13:40:44;4.93;;;2.85;;
28353;SDS011;15603;50.878;8.036;2022-07-22T13:43:19;5.07;;;2.97;;
28353;SDS011;15603;50.878;8.036;2022-07-22T13:45:48;3.72;;;2.53;;
28353;SDS011;15603;50.878;8.036;2022-07-22T13:48:15;5.03;;;2.92;;
28353;SDS011;15603;50.878;8.036;2022-07-22T13:50:45;4.55;;;3.13;;
28353;SDS011;15603;50.878;8.036;2022-07-22T13:53:13;4.50;;;3.15;;
28353;SDS011;15603;50.878;8.036;2022-07-22T13:55:40;5.63;;;3.05;;
28353;SDS011;15603;50.878;8.036;2022-07-22T13:58:07;3.45;;;2.00;;
28353;SDS011;15603;50.878;8.036;2022-07-22T14:00:35;4.40;;;3.00;;
28353;SDS011;15603;50.878;8.036;2022-07-22T14:03:02;14.95;;;3.42;;
28353;SDS011;15603;50.878;8.036;2022-07-22T14:05:31;7.28;;;3.10;;
28353;SDS011;15603;50.878;8.036;2022-07-22T14:07:58;4.55;;;2.67;;
28353;SDS011;15603;50.878;8.036;2022-07-22T14:10:25;4.57;;;2.90;;
28353;SDS011;15603;50.878;8.036;2022-07-22T14:12:52;3.83;;;2.80;;
28353;SDS011;15603;50.878;8.036;2022-07-22T14:15:20;3.22;;;2.55;;
28353;SDS011;15603;50.878;8.036;2022-07-22T14:17:47;7.13;;;2.92;;
28353;SDS011;15603;50.878;8.036;2022-07-22T14:20:15;4.72;;;2.25;;
28353;SDS011;15603;50.878;8.036;2022-07-22T14:22:42;3.03;;;2.42;;
28353;SDS011;15603;50.878;8.036;2022-07-22T14:25:09;4.25;;;2.08;;
28353;SDS011;15603;50.878;8.036;2022-07-22T14:27:37;5.20;;;2.50;;
28353;SDS011;15603;50.878;8.036;2022-07-22T14:30:04;6.65;;;2.88;;
28353;SDS011;15603;50.878;8.036;2022-07-22T14:32:31;6.55;;;2.45;;
28353;SDS011;15603;50.878;8.036;2022-07-22T14:34:58;3.53;;;2.72;;
28353;SDS011;15603;50.878;8.036;2022-07-22T14:37:25;2.95;;;2.55;;
28353;SDS011;15603;50.878;8.036;2022-07-22T14:39:53;2.67;;;2.33;;
28353;SDS011;15603;50.878;8.036;2022-07-22T14:42:21;6.22;;;3.20;;
28353;SDS011;15603;50.878;8.036;2022-07-22T14:44:48;4.28;;;2.50;;
28353;SDS011;15603;50.878;8.036;2022-07-22T14:47:15;4.18;;;2.75;;
28353;SDS011;15603;50.878;8.036;2022-07-22T14:49:42;7.43;;;2.30;;
28353;SDS011;15603;50.878;8.036;2022-07-22T14:52:09;3.67;;;2.92;;
28353;SDS011;15603;50.878;8.036;2022-07-22T14:54:37;5.85;;;3.38;;
28353;SDS011;15603;50.878;8.036;2022-07-22T14:57:04;4.22;;;2.72;;
28353;SDS011;15603;50.878;8.036;2022-07-22T14:59:31;4.57;;;3.08;;
28353;SDS011;15603;50.878;8.036;2022-07-22T15:01:58;4.72;;;3.15;;
28353;SDS011;15603;50.878;8.036;2022-07-22T15:04:25;3.97;;;2.35;;
28353;SDS011;15603;50.878;8.036;2022-07-22T15:06:52;4.05;;;2.50;;
28353;SDS011;15603;50.878;8.036;2022-07-22T15:09:19;4.07;;;2.55;;
28353;SDS011;15603;50.878;8.036;2022-07-22T15:11:46;3.40;;;2.30;;
28353;SDS011;15603;50.878;8.036;2022-07-22T15:14:14;6.70;;;2.55;;
28353;SDS011;15603;50.878;8.036;2022-07-22T15:16:41;3.65;;;2.47;;
28353;SDS011;15603;50.878;8.036;2022-07-22T15:19:08;3.58;;;2.60;;
28353;SDS011;15603;50.878;8.036;2022-07-22T15:21:36;3.90;;;2.63;;
28353;SDS011;15603;50.878;8.036;2022-07-22T15:24:03;3.42;;;2.35;;
28353;SDS011;15603;50.878;8.036;2022-07-22T15:26:31;4.55;;;2.40;;
28353;SDS011;15603;50.878;8.036;2022-07-22T15:28:58;4.93;;;2.35;;
28353;SDS011;15603;50.878;8.036;2022-07-22T15:31:25;3.88;;;2.33;;
28353;SDS011;15603;50.878;8.036;2022-07-22T15:33:53;3.22;;;2.17;;
28353;SDS011;15603;50.878;8.036;2022-07-22T15:36:21;7.38;;;2.38;;